sensor_id;sensor_type;location;lat;lon;timestamp;P1;durP1;ratioP1;P2;durP2;ratioP2
1691;SDS011;843;52.054;8.552;2023-08-17T00:00:38;6.47;;;3.10;;
1691;SDS011;843;52.054;8.552;2023-08-17T00:03:04;6.10;;;3.10;;
1691;SDS011;843;52.054;8.552;2023-08-17T00:05:31;9.73;;;3.50;;
1691;SDS011;843;52.054;8.552;2023-08-17T00:07:59;11.70;;;3.37;;
1691;SDS011;843;52.054;8.552;2023-08-17T00:10:25;6.07;;;2.83;;
1691;SDS011;843;52.054;8.552;2023-08-17T00:12:52;9.33;;;2.70;;
1691;SDS011;843;52.054;8.552;2023-08-17T00:15:18;5.77;;;3.60;;
1691;SDS011;843;52.054;8.552;2023-08-17T00:17:46;8.60;;;3.03;;
1691;SDS011;843;52.054;8.552;2023-08-17T00:20:12;6.43;;;3.27;;
1691;SDS011;843;52.054;8.552;2023-08-17T00:22:39;6.97;;;3.90;;
1691;SDS011;843;52.054;8.552;2023-08-17T00:25:06;6.97;;;3.20;;
1691;SDS011;843;52.054;8.552;2023-08-17T00:27:32;9.20;;;3.70;;
1691;SDS011;843;52.054;8.552;2023-08-17T00:29:59;5.80;;;3.80;;
1691;SDS011;843;52.054;8.552;2023-08-17T00:32:25;8.33;;;3.97;;
1691;SDS011;843;52.054;8.552;2023-08-17T00:34:53;8.43;;;4.30;;
1691;SDS011;843;52.054;8.552;2023-08-17T00:37:19;5.00;;;3.07;;
1691;SDS011;843;52.054;8.552;2023-08-17T00:39:46;5.60;;;3.93;;
1691;SDS011;843;52.054;8.552;2023-08-17T00:42:12;7.87;;;3.60;;
1691;SDS011;843;52.054;8.552;2023-08-17T00:44:38;9.67;;;3.87;;
1691;SDS011;843;52.054;8.552;2023-08-17T00:47:05;5.67;;;3.90;;
1691;SDS011;843;52.054;8.552;2023-08-17T00:49:31;5.67;;;3.03;;
1691;SDS011;843;52.054;8.552;2023-08-17T00:51:59;5.00;;;3.40;;
1691;SDS011;843;52.054;8.552;2023-08-17T00:54:26;8.63;;;3.70;;
1691;SDS011;843;52.054;8.552;2023-08-17T00:56:53;7.73;;;3.80;;
1691;SDS011;843;52.054;8.552;2023-08-17T00:59:20;6.43;;;3.80;;
1691;SDS011;843;52.054;8.552;2023-08-17T01:01:46;5.50;;;4.13;;
1691;SDS011;843;52.054;8.552;2023-08-17T01:04:13;10.23;;;4.57;;
1691;SDS011;843;52.054;8.552;2023-08-17T01:06:40;9.60;;;4.37;;
1691;SDS011;843;52.054;8.552;2023-08-17T01:09:07;4.50;;;3.67;;
1691;SDS011;843;52.054;8.552;2023-08-17T01:11:36;6.97;;;4.13;;
1691;SDS011;843;52.054;8.552;2023-08-17T01:14:04;6.60;;;4.37;;
1691;SDS011;843;52.054;8.552;2023-08-17T01:16:43;4.20;;;3.63;;
1691;SDS011;843;52.054;8.552;2023-08-17T01:19:13;8.40;;;4.20;;
1691;SDS011;843;52.054;8.552;2023-08-17T01:21:48;4.07;;;3.63;;
1691;SDS011;843;52.054;8.552;2023-08-17T01:24:17;7.40;;;4.43;;
1691;SDS011;843;52.054;8.552;2023-08-17T01:26:43;5.37;;;4.07;;
1691;SDS011;843;52.054;8.552;2023-08-17T01:29:09;6.60;;;4.60;;
1691;SDS011;843;52.054;8.552;2023-08-17T01:31:36;10.13;;;4.60;;
1691;SDS011;843;52.054;8.552;2023-08-17T01:34:07;7.50;;;4.33;;
1691;SDS011;843;52.054;8.552;2023-08-17T01:36:35;7.40;;;4.33;;
1691;SDS011;843;52.054;8.552;2023-08-17T01:39:03;5.60;;;4.23;;
1691;SDS011;843;52.054;8.552;2023-08-17T01:41:31;6.97;;;4.40;;
1691;SDS011;843;52.054;8.552;2023-08-17T01:43:59;8.07;;;4.90;;
1691;SDS011;843;52.054;8.552;2023-08-17T01:46:29;8.00;;;5.00;;
1691;SDS011;843;52.054;8.552;2023-08-17T01:48:56;7.67;;;4.70;;
1691;SDS011;843;52.054;8.552;2023-08-17T01:51:22;6.40;;;4.83;;
1691;SDS011;843;52.054;8.552;2023-08-17T01:53:49;10.70;;;4.90;;
1691;SDS011;843;52.054;8.552;2023-08-17T01:56:15;4.37;;;3.97;;
1691;SDS011;843;52.054;8.552;2023-08-17T01:58:43;6.27;;;3.90;;
1691;SDS011;843;52.054;8.552;2023-08-17T02:01:10;6.57;;;4.40;;
1691;SDS011;843;52.054;8.552;2023-08-17T02:03:36;5.70;;;4.57;;
1691;SDS011;843;52.054;8.552;2023-08-17T02:06:02;7.10;;;4.27;;
1691;SDS011;843;52.054;8.552;2023-08-17T02:08:29;6.87;;;4.47;;
1691;SDS011;843;52.054;8.552;2023-08-17T02:10:55;8.27;;;4.30;;
1691;SDS011;843;52.054;8.552;2023-08-17T02:13:22;6.80;;;4.30;;
1691;SDS011;843;52.054;8.552;2023-08-17T02:15:49;6.07;;;4.43;;
1691;SDS011;843;52.054;8.552;2023-08-17T02:18:16;6.00;;;4.57;;
1691;SDS011;843;52.054;8.552;2023-08-17T02:20:42;6.20;;;4.20;;
1691;SDS011;843;52.054;8.552;2023-08-17T02:23:08;5.13;;;4.60;;
1691;SDS011;843;52.054;8.552;2023-08-17T02:25:37;6.60;;;4.37;;
1691;SDS011;843;52.054;8.552;2023-08-17T02:28:04;5.03;;;4.10;;
1691;SDS011;843;52.054;8.552;2023-08-17T02:30:30;10.93;;;4.50;;
1691;SDS011;843;52.054;8.552;2023-08-17T02:32:58;6.23;;;4.53;;
1691;SDS011;843;52.054;8.552;2023-08-17T02:35:24;7.90;;;5.13;;
1691;SDS011;843;52.054;8.552;2023-08-17T02:37:51;7.30;;;4.00;;
1691;SDS011;843;52.054;8.552;2023-08-17T02:40:17;10.30;;;4.87;;
1691;SDS011;843;52.054;8.552;2023-08-17T02:42:44;7.43;;;4.90;;
1691;SDS011;843;52.054;8.552;2023-08-17T02:45:10;7.73;;;5.00;;
1691;SDS011;843;52.054;8.552;2023-08-17T02:47:37;7.80;;;5.27;;
1691;SDS011;843;52.054;8.552;2023-08-17T02:50:05;10.30;;;5.40;;
1691;SDS011;843;52.054;8.552;2023-08-17T02:52:31;6.30;;;5.00;;
1691;SDS011;843;52.054;8.552;2023-08-17T02:54:58;7.80;;;4.90;;
1691;SDS011;843;52.054;8.552;2023-08-17T02:57:24;11.63;;;5.20;;
1691;SDS011;843;52.054;8.552;2023-08-17T02:59:51;6.27;;;4.40;;
1691;SDS011;843;52.054;8.552;2023-08-17T03:02:17;11.87;;;4.43;;
1691;SDS011;843;52.054;8.552;2023-08-17T03:04:43;13.40;;;5.60;;
1691;SDS011;843;52.054;8.552;2023-08-17T03:07:11;10.97;;;5.27;;
1691;SDS011;843;52.054;8.552;2023-08-17T03:09:38;7.20;;;4.50;;
1691;SDS011;843;52.054;8.552;2023-08-17T03:12:04;8.63;;;5.17;;
1691;SDS011;843;52.054;8.552;2023-08-17T03:14:31;6.00;;;5.00;;
1691;SDS011;843;52.054;8.552;2023-08-17T03:16:57;7.77;;;4.13;;
1691;SDS011;843;52.054;8.552;2023-08-17T03:19:23;5.60;;;5.03;;
1691;SDS011;843;52.054;8.552;2023-08-17T03:21:50;5.60;;;4.90;;
1691;SDS011;843;52.054;8.552;2023-08-17T03:24:18;6.50;;;4.67;;
1691;SDS011;843;52.054;8.552;2023-08-17T03:26:44;8.40;;;5.80;;
1691;SDS011;843;52.054;8.552;2023-08-17T03:29:10;12.40;;;5.37;;
1691;SDS011;843;52.054;8.552;2023-08-17T03:31:37;7.93;;;4.87;;
1691;SDS011;843;52.054;8.552;2023-08-17T03:34:03;5.30;;;4.80;;
1691;SDS011;843;52.054;8.552;2023-08-17T03:36:29;6.63;;;5.50;;
1691;SDS011;843;52.054;8.552;2023-08-17T03:38:56;12.40;;;5.17;;
1691;SDS011;843;52.054;8.552;2023-08-17T03:41:24;7.40;;;5.63;;
1691;SDS011;843;52.054;8.552;2023-08-17T03:43:50;7.70;;;5.50;;
1691;SDS011;843;52.054;8.552;2023-08-17T03:46:16;6.13;;;4.90;;
1691;SDS011;843;52.054;8.552;2023-08-17T03:48:43;6.17;;;5.57;;
1691;SDS011;843;52.054;8.552;2023-08-17T03:51:10;9.87;;;5.27;;
1691;SDS011;843;52.054;8.552;2023-08-17T03:53:36;9.47;;;5.77;;
1691;SDS011;843;52.054;8.552;2023-08-17T03:56:02;6.93;;;4.93;;
1691;SDS011;843;52.054;8.552;2023-08-17T03:58:30;6.17;;;4.83;;
1691;SDS011;843;52.054;8.552;2023-08-17T04:00:59;12.17;;;5.03;;
1691;SDS011;843;52.054;8.552;2023-08-17T04:03:26;9.40;;;6.00;;
1691;SDS011;843;52.054;8.552;2023-08-17T04:05:52;8.53;;;6.00;;
1691;SDS011;843;52.054;8.552;2023-08-17T04:08:18;7.77;;;5.37;;
1691;SDS011;843;52.054;8.552;2023-08-17T04:10:45;7.87;;;5.87;;
1691;SDS011;843;52.054;8.552;2023-08-17T04:13:11;8.70;;;5.57;;
1691;SDS011;843;52.054;8.552;2023-08-17T04:15:39;9.73;;;5.70;;
1691;SDS011;843;52.054;8.552;2023-08-17T04:18:05;8.30;;;6.27;;
1691;SDS011;843;52.054;8.552;2023-08-17T04:20:31;7.90;;;6.50;;
1691;SDS011;843;52.054;8.552;2023-08-17T04:22:58;11.10;;;6.70;;
1691;SDS011;843;52.054;8.552;2023-08-17T04:25:24;10.50;;;6.83;;
1691;SDS011;843;52.054;8.552;2023-08-17T04:27:51;10.13;;;5.93;;
1691;SDS011;843;52.054;8.552;2023-08-17T04:30:17;12.10;;;6.10;;
1691;SDS011;843;52.054;8.552;2023-08-17T04:32:45;10.60;;;6.17;;
1691;SDS011;843;52.054;8.552;2023-08-17T04:35:15;7.30;;;5.27;;
1691;SDS011;843;52.054;8.552;2023-08-17T04:37:42;10.13;;;6.07;;
1691;SDS011;843;52.054;8.552;2023-08-17T04:40:08;7.80;;;5.90;;
1691;SDS011;843;52.054;8.552;2023-08-17T04:42:35;7.30;;;5.50;;
1691;SDS011;843;52.054;8.552;2023-08-17T04:45:01;7.50;;;5.53;;
1691;SDS011;843;52.054;8.552;2023-08-17T04:47:28;10.43;;;5.70;;
1691;SDS011;843;52.054;8.552;2023-08-17T04:49:56;6.63;;;6.03;;
1691;SDS011;843;52.054;8.552;2023-08-17T04:52:22;8.27;;;5.60;;
1691;SDS011;843;52.054;8.552;2023-08-17T04:54:48;13.20;;;6.00;;
1691;SDS011;843;52.054;8.552;2023-08-17T04:57:15;9.07;;;6.57;;
1691;SDS011;843;52.054;8.552;2023-08-17T04:59:42;9.10;;;5.93;;
1691;SDS011;843;52.054;8.552;2023-08-17T05:02:09;7.57;;;5.80;;
1691;SDS011;843;52.054;8.552;2023-08-17T05:04:35;10.73;;;5.90;;
1691;SDS011;843;52.054;8.552;2023-08-17T05:07:03;9.73;;;6.27;;
1691;SDS011;843;52.054;8.552;2023-08-17T05:09:29;9.23;;;5.67;;
1691;SDS011;843;52.054;8.552;2023-08-17T05:11:56;8.83;;;5.93;;
1691;SDS011;843;52.054;8.552;2023-08-17T05:14:23;7.73;;;5.37;;
1691;SDS011;843;52.054;8.552;2023-08-17T05:16:49;7.57;;;5.67;;
1691;SDS011;843;52.054;8.552;2023-08-17T05:19:15;6.93;;;5.30;;
1691;SDS011;843;52.054;8.552;2023-08-17T05:21:42;7.47;;;5.57;;
1691;SDS011;843;52.054;8.552;2023-08-17T05:24:10;9.93;;;5.30;;
1691;SDS011;843;52.054;8.552;2023-08-17T05:26:36;11.40;;;5.33;;
1691;SDS011;843;52.054;8.552;2023-08-17T05:29:03;8.87;;;5.50;;
1691;SDS011;843;52.054;8.552;2023-08-17T05:31:29;7.20;;;5.03;;
1691;SDS011;843;52.054;8.552;2023-08-17T05:33:55;7.00;;;5.97;;
1691;SDS011;843;52.054;8.552;2023-08-17T05:36:22;7.80;;;5.93;;
1691;SDS011;843;52.054;8.552;2023-08-17T05:38:48;7.60;;;6.40;;
1691;SDS011;843;52.054;8.552;2023-08-17T05:41:16;5.93;;;5.30;;
1691;SDS011;843;52.054;8.552;2023-08-17T05:43:42;7.90;;;5.77;;
1691;SDS011;843;52.054;8.552;2023-08-17T05:46:09;9.87;;;5.43;;
1691;SDS011;843;52.054;8.552;2023-08-17T05:48:35;12.20;;;5.43;;
1691;SDS011;843;52.054;8.552;2023-08-17T05:51:02;6.70;;;6.10;;
1691;SDS011;843;52.054;8.552;2023-08-17T05:53:28;8.40;;;5.50;;
1691;SDS011;843;52.054;8.552;2023-08-17T05:55:55;8.80;;;5.63;;
1691;SDS011;843;52.054;8.552;2023-08-17T05:58:23;10.40;;;6.17;;
1691;SDS011;843;52.054;8.552;2023-08-17T06:00:49;9.20;;;6.60;;
1691;SDS011;843;52.054;8.552;2023-08-17T06:03:16;12.57;;;6.90;;
1691;SDS011;843;52.054;8.552;2023-08-17T06:05:42;7.07;;;6.30;;
1691;SDS011;843;52.054;8.552;2023-08-17T06:08:09;9.30;;;5.90;;
1691;SDS011;843;52.054;8.552;2023-08-17T06:10:35;7.67;;;6.30;;
1691;SDS011;843;52.054;8.552;2023-08-17T06:13:01;7.97;;;6.90;;
1691;SDS011;843;52.054;8.552;2023-08-17T06:15:29;14.87;;;6.77;;
1691;SDS011;843;52.054;8.552;2023-08-17T06:17:56;8.20;;;7.07;;
1691;SDS011;843;52.054;8.552;2023-08-17T06:20:22;11.50;;;7.70;;
1691;SDS011;843;52.054;8.552;2023-08-17T06:22:49;13.60;;;7.90;;
1691;SDS011;843;52.054;8.552;2023-08-17T06:25:15;9.50;;;7.13;;
1691;SDS011;843;52.054;8.552;2023-08-17T06:27:41;13.47;;;8.00;;
1691;SDS011;843;52.054;8.552;2023-08-17T06:30:08;13.67;;;9.53;;
1691;SDS011;843;52.054;8.552;2023-08-17T06:32:36;10.90;;;8.20;;
1691;SDS011;843;52.054;8.552;2023-08-17T06:35:03;10.97;;;7.77;;
1691;SDS011;843;52.054;8.552;2023-08-17T06:37:29;9.07;;;8.20;;
1691;SDS011;843;52.054;8.552;2023-08-17T06:39:56;13.70;;;8.63;;
1691;SDS011;843;52.054;8.552;2023-08-17T06:42:22;11.03;;;8.83;;
1691;SDS011;843;52.054;8.552;2023-08-17T06:44:49;13.60;;;8.00;;
1691;SDS011;843;52.054;8.552;2023-08-17T06:47:15;9.97;;;7.53;;
1691;SDS011;843;52.054;8.552;2023-08-17T06:49:43;12.07;;;9.20;;
1691;SDS011;843;52.054;8.552;2023-08-17T06:52:09;14.70;;;9.90;;
1691;SDS011;843;52.054;8.552;2023-08-17T06:54:36;14.13;;;9.30;;
1691;SDS011;843;52.054;8.552;2023-08-17T06:57:02;12.20;;;9.40;;
1691;SDS011;843;52.054;8.552;2023-08-17T06:59:29;14.67;;;10.40;;
1691;SDS011;843;52.054;8.552;2023-08-17T07:01:56;16.87;;;9.77;;
1691;SDS011;843;52.054;8.552;2023-08-17T07:04:22;12.83;;;8.70;;
1691;SDS011;843;52.054;8.552;2023-08-17T07:06:50;13.13;;;10.87;;
1691;SDS011;843;52.054;8.552;2023-08-17T07:09:17;12.20;;;10.10;;
1691;SDS011;843;52.054;8.552;2023-08-17T07:11:43;18.03;;;10.37;;
1691;SDS011;843;52.054;8.552;2023-08-17T07:14:10;18.90;;;12.17;;
1691;SDS011;843;52.054;8.552;2023-08-17T07:16:37;14.50;;;10.43;;
1691;SDS011;843;52.054;8.552;2023-08-17T07:19:04;15.33;;;12.50;;
1691;SDS011;843;52.054;8.552;2023-08-17T07:21:30;15.47;;;12.40;;
1691;SDS011;843;52.054;8.552;2023-08-17T07:24:05;16.73;;;12.47;;
1691;SDS011;843;52.054;8.552;2023-08-17T07:26:37;16.03;;;12.23;;
1691;SDS011;843;52.054;8.552;2023-08-17T07:29:03;17.30;;;11.67;;
1691;SDS011;843;52.054;8.552;2023-08-17T07:31:29;14.97;;;12.60;;
1691;SDS011;843;52.054;8.552;2023-08-17T07:33:58;19.30;;;13.10;;
1691;SDS011;843;52.054;8.552;2023-08-17T07:36:25;15.70;;;14.07;;
1691;SDS011;843;52.054;8.552;2023-08-17T07:38:51;16.30;;;12.43;;
1691;SDS011;843;52.054;8.552;2023-08-17T07:41:19;18.40;;;13.17;;
1691;SDS011;843;52.054;8.552;2023-08-17T07:43:45;17.80;;;13.23;;
1691;SDS011;843;52.054;8.552;2023-08-17T07:46:12;17.80;;;13.87;;
1691;SDS011;843;52.054;8.552;2023-08-17T07:48:38;19.57;;;12.87;;
1691;SDS011;843;52.054;8.552;2023-08-17T07:51:04;18.73;;;14.47;;
1691;SDS011;843;52.054;8.552;2023-08-17T07:53:31;21.90;;;14.43;;
1691;SDS011;843;52.054;8.552;2023-08-17T07:55:57;18.20;;;14.67;;
1691;SDS011;843;52.054;8.552;2023-08-17T07:58:25;18.90;;;13.53;;
1691;SDS011;843;52.054;8.552;2023-08-17T08:00:51;22.97;;;14.90;;
1691;SDS011;843;52.054;8.552;2023-08-17T08:03:18;15.77;;;12.83;;
1691;SDS011;843;52.054;8.552;2023-08-17T08:05:44;16.33;;;12.77;;
1691;SDS011;843;52.054;8.552;2023-08-17T08:08:10;17.80;;;13.60;;
1691;SDS011;843;52.054;8.552;2023-08-17T08:10:37;16.93;;;13.30;;
1691;SDS011;843;52.054;8.552;2023-08-17T08:13:04;14.03;;;12.37;;
1691;SDS011;843;52.054;8.552;2023-08-17T08:15:32;13.70;;;12.30;;
1691;SDS011;843;52.054;8.552;2023-08-17T08:17:59;12.53;;;11.17;;
1691;SDS011;843;52.054;8.552;2023-08-17T08:20:25;11.50;;;10.30;;
1691;SDS011;843;52.054;8.552;2023-08-17T08:22:51;13.70;;;11.20;;
1691;SDS011;843;52.054;8.552;2023-08-17T08:25:18;14.83;;;11.77;;
1691;SDS011;843;52.054;8.552;2023-08-17T08:27:44;15.83;;;10.37;;
1691;SDS011;843;52.054;8.552;2023-08-17T08:30:11;11.73;;;10.53;;
1691;SDS011;843;52.054;8.552;2023-08-17T08:32:38;12.83;;;10.43;;
1691;SDS011;843;52.054;8.552;2023-08-17T08:35:05;10.97;;;9.83;;
1691;SDS011;843;52.054;8.552;2023-08-17T08:37:32;13.93;;;11.30;;
1691;SDS011;843;52.054;8.552;2023-08-17T08:39:58;11.47;;;10.37;;
1691;SDS011;843;52.054;8.552;2023-08-17T08:42:25;11.60;;;10.40;;
1691;SDS011;843;52.054;8.552;2023-08-17T08:44:51;12.00;;;10.80;;
1691;SDS011;843;52.054;8.552;2023-08-17T08:47:18;14.50;;;10.50;;
1691;SDS011;843;52.054;8.552;2023-08-17T08:49:47;13.10;;;11.33;;
1691;SDS011;843;52.054;8.552;2023-08-17T08:52:16;11.87;;;10.37;;
1691;SDS011;843;52.054;8.552;2023-08-17T08:54:45;13.13;;;10.33;;
1691;SDS011;843;52.054;8.552;2023-08-17T08:57:15;11.47;;;10.20;;
1691;SDS011;843;52.054;8.552;2023-08-17T08:59:44;12.50;;;9.70;;
1691;SDS011;843;52.054;8.552;2023-08-17T09:02:12;10.77;;;9.50;;
1691;SDS011;843;52.054;8.552;2023-08-17T09:04:40;10.87;;;9.10;;
1691;SDS011;843;52.054;8.552;2023-08-17T09:07:08;10.50;;;9.50;;
1691;SDS011;843;52.054;8.552;2023-08-17T09:09:35;10.23;;;9.07;;
1691;SDS011;843;52.054;8.552;2023-08-17T09:12:02;11.33;;;10.20;;
1691;SDS011;843;52.054;8.552;2023-08-17T09:14:28;11.00;;;9.53;;
1691;SDS011;843;52.054;8.552;2023-08-17T09:16:55;10.43;;;9.40;;
1691;SDS011;843;52.054;8.552;2023-08-17T09:19:23;9.70;;;8.70;;
1691;SDS011;843;52.054;8.552;2023-08-17T09:21:50;12.60;;;9.07;;
1691;SDS011;843;52.054;8.552;2023-08-17T09:24:18;10.80;;;9.50;;
1691;SDS011;843;52.054;8.552;2023-08-17T09:26:45;11.60;;;10.30;;
1691;SDS011;843;52.054;8.552;2023-08-17T09:29:18;10.83;;;9.53;;
1691;SDS011;843;52.054;8.552;2023-08-17T09:31:45;12.23;;;9.67;;
1691;SDS011;843;52.054;8.552;2023-08-17T09:34:11;12.20;;;11.00;;
1691;SDS011;843;52.054;8.552;2023-08-17T09:36:38;13.00;;;10.93;;
1691;SDS011;843;52.054;8.552;2023-08-17T09:39:05;11.10;;;10.00;;
1691;SDS011;843;52.054;8.552;2023-08-17T09:41:39;16.23;;;11.03;;
1691;SDS011;843;52.054;8.552;2023-08-17T09:44:07;12.43;;;11.20;;
1691;SDS011;843;52.054;8.552;2023-08-17T09:46:33;11.43;;;9.30;;
1691;SDS011;843;52.054;8.552;2023-08-17T09:49:01;11.93;;;10.73;;
1691;SDS011;843;52.054;8.552;2023-08-17T09:51:29;11.93;;;10.73;;
1691;SDS011;843;52.054;8.552;2023-08-17T09:53:55;12.60;;;11.20;;
1691;SDS011;843;52.054;8.552;2023-08-17T09:56:22;14.47;;;11.60;;
1691;SDS011;843;52.054;8.552;2023-08-17T09:58:51;15.77;;;12.83;;
1691;SDS011;843;52.054;8.552;2023-08-17T10:01:18;12.80;;;11.60;;
1691;SDS011;843;52.054;8.552;2023-08-17T10:03:44;14.27;;;12.37;;
1691;SDS011;843;52.054;8.552;2023-08-17T10:06:12;13.60;;;11.40;;
1691;SDS011;843;52.054;8.552;2023-08-17T10:08:39;13.83;;;11.27;;
1691;SDS011;843;52.054;8.552;2023-08-17T10:11:08;16.33;;;11.00;;
1691;SDS011;843;52.054;8.552;2023-08-17T10:13:35;15.00;;;10.97;;
1691;SDS011;843;52.054;8.552;2023-08-17T10:16:06;13.63;;;12.20;;
1691;SDS011;843;52.054;8.552;2023-08-17T10:18:36;13.20;;;11.83;;
1691;SDS011;843;52.054;8.552;2023-08-17T10:21:06;13.33;;;11.97;;
1691;SDS011;843;52.054;8.552;2023-08-17T10:23:33;13.20;;;11.90;;
1691;SDS011;843;52.054;8.552;2023-08-17T10:26:00;12.37;;;11.07;;
1691;SDS011;843;52.054;8.552;2023-08-17T10:28:28;11.53;;;10.47;;
1691;SDS011;843;52.054;8.552;2023-08-17T10:30:54;15.23;;;12.60;;
1691;SDS011;843;52.054;8.552;2023-08-17T10:33:22;12.80;;;11.57;;
1691;SDS011;843;52.054;8.552;2023-08-17T10:35:49;12.77;;;11.47;;
1691;SDS011;843;52.054;8.552;2023-08-17T10:38:16;11.20;;;10.10;;
1691;SDS011;843;52.054;8.552;2023-08-17T10:40:42;12.37;;;11.17;;
1691;SDS011;843;52.054;8.552;2023-08-17T10:43:09;11.47;;;10.37;;
1691;SDS011;843;52.054;8.552;2023-08-17T10:45:37;12.40;;;10.80;;
1691;SDS011;843;52.054;8.552;2023-08-17T10:51:00;10.60;;;9.50;;
1691;SDS011;843;52.054;8.552;2023-08-17T10:53:27;13.30;;;10.30;;
1691;SDS011;843;52.054;8.552;2023-08-17T10:55:56;11.50;;;10.30;;
1691;SDS011;843;52.054;8.552;2023-08-17T10:58:23;11.23;;;10.23;;
1691;SDS011;843;52.054;8.552;2023-08-17T11:00:53;11.20;;;10.10;;
1691;SDS011;843;52.054;8.552;2023-08-17T11:03:20;11.53;;;10.43;;
1691;SDS011;843;52.054;8.552;2023-08-17T11:05:48;11.20;;;10.10;;
1691;SDS011;843;52.054;8.552;2023-08-17T11:08:22;10.87;;;9.87;;
1691;SDS011;843;52.054;8.552;2023-08-17T11:10:56;13.10;;;11.37;;
1691;SDS011;843;52.054;8.552;2023-08-17T11:13:23;11.97;;;10.40;;
1691;SDS011;843;52.054;8.552;2023-08-17T11:15:49;12.60;;;11.40;;
1691;SDS011;843;52.054;8.552;2023-08-17T11:18:16;12.10;;;10.90;;
1691;SDS011;843;52.054;8.552;2023-08-17T11:20:42;13.90;;;11.47;;
1691;SDS011;843;52.054;8.552;2023-08-17T11:23:09;13.60;;;12.40;;
1691;SDS011;843;52.054;8.552;2023-08-17T11:25:37;14.57;;;13.03;;
1691;SDS011;843;52.054;8.552;2023-08-17T11:28:05;14.03;;;12.70;;
1691;SDS011;843;52.054;8.552;2023-08-17T11:30:32;13.60;;;12.30;;
1691;SDS011;843;52.054;8.552;2023-08-17T11:33:00;15.30;;;13.80;;
1691;SDS011;843;52.054;8.552;2023-08-17T11:35:27;14.00;;;12.70;;
1691;SDS011;843;52.054;8.552;2023-08-17T11:37:53;14.17;;;12.70;;
1691;SDS011;843;52.054;8.552;2023-08-17T11:40:20;14.13;;;12.73;;
1691;SDS011;843;52.054;8.552;2023-08-17T11:42:47;13.90;;;12.23;;
1691;SDS011;843;52.054;8.552;2023-08-17T11:45:14;14.33;;;12.97;;
1691;SDS011;843;52.054;8.552;2023-08-17T11:47:41;14.17;;;12.77;;
1691;SDS011;843;52.054;8.552;2023-08-17T11:50:09;12.77;;;11.67;;
1691;SDS011;843;52.054;8.552;2023-08-17T11:52:35;14.83;;;11.70;;
1691;SDS011;843;52.054;8.552;2023-08-17T11:55:02;12.90;;;11.70;;
1691;SDS011;843;52.054;8.552;2023-08-17T11:57:29;12.73;;;11.53;;
1691;SDS011;843;52.054;8.552;2023-08-17T11:59:57;12.20;;;11.00;;
1691;SDS011;843;52.054;8.552;2023-08-17T12:02:24;12.00;;;10.17;;
1691;SDS011;843;52.054;8.552;2023-08-17T12:04:51;12.57;;;11.37;;
1691;SDS011;843;52.054;8.552;2023-08-17T12:07:17;12.27;;;10.90;;
1691;SDS011;843;52.054;8.552;2023-08-17T12:09:44;11.47;;;10.33;;
1691;SDS011;843;52.054;8.552;2023-08-17T12:12:11;11.80;;;9.80;;
1691;SDS011;843;52.054;8.552;2023-08-17T12:14:40;11.40;;;10.00;;
1691;SDS011;843;52.054;8.552;2023-08-17T12:17:13;12.13;;;10.90;;
1691;SDS011;843;52.054;8.552;2023-08-17T12:19:39;10.80;;;9.67;;
1691;SDS011;843;52.054;8.552;2023-08-17T12:22:06;10.87;;;9.77;;
1691;SDS011;843;52.054;8.552;2023-08-17T12:24:32;12.10;;;10.30;;
1691;SDS011;843;52.054;8.552;2023-08-17T12:26:59;11.07;;;9.90;;
1691;SDS011;843;52.054;8.552;2023-08-17T12:29:27;10.20;;;9.00;;
1691;SDS011;843;52.054;8.552;2023-08-17T12:31:53;10.00;;;9.00;;
1691;SDS011;843;52.054;8.552;2023-08-17T12:34:21;9.80;;;8.90;;
1691;SDS011;843;52.054;8.552;2023-08-17T12:36:48;16.03;;;9.83;;
1691;SDS011;843;52.054;8.552;2023-08-17T12:39:14;12.60;;;9.23;;
1691;SDS011;843;52.054;8.552;2023-08-17T12:41:41;10.30;;;9.30;;
1691;SDS011;843;52.054;8.552;2023-08-17T12:44:08;10.57;;;9.47;;
1691;SDS011;843;52.054;8.552;2023-08-17T12:46:37;9.60;;;8.70;;
1691;SDS011;843;52.054;8.552;2023-08-17T12:49:03;9.80;;;9.00;;
1691;SDS011;843;52.054;8.552;2023-08-17T12:51:31;9.47;;;8.50;;
1691;SDS011;843;52.054;8.552;2023-08-17T12:53:58;11.20;;;10.00;;
1691;SDS011;843;52.054;8.552;2023-08-17T12:56:24;9.70;;;8.70;;
1691;SDS011;843;52.054;8.552;2023-08-17T12:58:50;9.57;;;8.60;;
1691;SDS011;843;52.054;8.552;2023-08-17T13:01:17;12.43;;;10.00;;
1691;SDS011;843;52.054;8.552;2023-08-17T13:03:43;9.60;;;8.60;;
1691;SDS011;843;52.054;8.552;2023-08-17T13:06:10;10.47;;;9.30;;
1691;SDS011;843;52.054;8.552;2023-08-17T13:08:38;9.47;;;8.57;;
1691;SDS011;843;52.054;8.552;2023-08-17T13:11:04;9.10;;;8.20;;
1691;SDS011;843;52.054;8.552;2023-08-17T13:13:31;9.00;;;7.53;;
1691;SDS011;843;52.054;8.552;2023-08-17T13:15:57;8.27;;;7.47;;
1691;SDS011;843;52.054;8.552;2023-08-17T13:18:25;8.50;;;7.40;;
1691;SDS011;843;52.054;8.552;2023-08-17T13:20:51;8.70;;;7.80;;
1691;SDS011;843;52.054;8.552;2023-08-17T13:23:18;9.60;;;8.60;;
1691;SDS011;843;52.054;8.552;2023-08-17T13:25:46;9.90;;;7.73;;
1691;SDS011;843;52.054;8.552;2023-08-17T13:28:12;8.90;;;8.00;;
1691;SDS011;843;52.054;8.552;2023-08-17T13:30:39;9.80;;;8.40;;
1691;SDS011;843;52.054;8.552;2023-08-17T13:33:05;10.70;;;9.17;;
1691;SDS011;843;52.054;8.552;2023-08-17T13:35:32;8.30;;;7.40;;
1691;SDS011;843;52.054;8.552;2023-08-17T13:37:58;10.00;;;8.77;;
1691;SDS011;843;52.054;8.552;2023-08-17T13:40:28;8.73;;;7.47;;
1691;SDS011;843;52.054;8.552;2023-08-17T13:42:56;9.10;;;7.77;;
1691;SDS011;843;52.054;8.552;2023-08-17T13:45:23;9.83;;;7.03;;
1691;SDS011;843;52.054;8.552;2023-08-17T13:47:50;7.73;;;6.67;;
1691;SDS011;843;52.054;8.552;2023-08-17T13:50:16;10.40;;;6.40;;
1691;SDS011;843;52.054;8.552;2023-08-17T13:52:43;10.53;;;6.10;;
1691;SDS011;843;52.054;8.552;2023-08-17T13:55:10;8.30;;;7.40;;
1691;SDS011;843;52.054;8.552;2023-08-17T13:57:36;8.10;;;6.40;;
1691;SDS011;843;52.054;8.552;2023-08-17T14:00:05;9.10;;;7.00;;
1691;SDS011;843;52.054;8.552;2023-08-17T14:02:32;7.40;;;5.97;;
1691;SDS011;843;52.054;8.552;2023-08-17T14:04:59;7.83;;;6.30;;
1691;SDS011;843;52.054;8.552;2023-08-17T14:07:25;9.37;;;6.80;;
1691;SDS011;843;52.054;8.552;2023-08-17T14:09:52;6.80;;;6.10;;
1691;SDS011;843;52.054;8.552;2023-08-17T14:12:18;8.33;;;6.80;;
1691;SDS011;843;52.054;8.552;2023-08-17T14:14:45;8.00;;;7.20;;
1691;SDS011;843;52.054;8.552;2023-08-17T14:17:13;9.57;;;7.50;;
1691;SDS011;843;52.054;8.552;2023-08-17T14:19:39;10.90;;;8.50;;
1691;SDS011;843;52.054;8.552;2023-08-17T14:22:07;11.77;;;8.57;;
1691;SDS011;843;52.054;8.552;2023-08-17T14:24:34;10.90;;;8.70;;
1691;SDS011;843;52.054;8.552;2023-08-17T14:27:01;10.30;;;7.83;;
1691;SDS011;843;52.054;8.552;2023-08-17T14:29:27;9.20;;;7.80;;
1691;SDS011;843;52.054;8.552;2023-08-17T14:31:54;9.60;;;8.03;;
1691;SDS011;843;52.054;8.552;2023-08-17T14:34:23;14.27;;;9.63;;
1691;SDS011;843;52.054;8.552;2023-08-17T14:36:49;13.80;;;8.33;;
1691;SDS011;843;52.054;8.552;2023-08-17T14:39:16;12.33;;;8.23;;
1691;SDS011;843;52.054;8.552;2023-08-17T14:41:42;8.47;;;7.67;;
1691;SDS011;843;52.054;8.552;2023-08-17T14:44:09;10.70;;;7.63;;
1691;SDS011;843;52.054;8.552;2023-08-17T14:46:35;12.10;;;8.07;;
1691;SDS011;843;52.054;8.552;2023-08-17T14:49:04;9.10;;;7.20;;
1691;SDS011;843;52.054;8.552;2023-08-17T14:51:36;8.80;;;7.90;;
1691;SDS011;843;52.054;8.552;2023-08-17T14:54:03;10.40;;;8.03;;
1691;SDS011;843;52.054;8.552;2023-08-17T14:56:29;11.40;;;8.20;;
1691;SDS011;843;52.054;8.552;2023-08-17T14:58:56;11.47;;;8.07;;
1691;SDS011;843;52.054;8.552;2023-08-17T15:01:23;10.73;;;7.67;;
1691;SDS011;843;52.054;8.552;2023-08-17T15:03:50;10.87;;;8.80;;
1691;SDS011;843;52.054;8.552;2023-08-17T15:06:17;11.67;;;8.30;;
1691;SDS011;843;52.054;8.552;2023-08-17T15:08:45;8.90;;;8.00;;
1691;SDS011;843;52.054;8.552;2023-08-17T15:11:11;9.90;;;8.50;;
1691;SDS011;843;52.054;8.552;2023-08-17T15:13:38;11.27;;;8.00;;
1691;SDS011;843;52.054;8.552;2023-08-17T15:16:04;12.10;;;8.80;;
1691;SDS011;843;52.054;8.552;2023-08-17T15:18:32;9.80;;;7.93;;